Time;durP1;ratioP1;P1;durP2;ratioP2;P2;SDS_P1;SDS_P2;PMS_P1;PMS_P2;Temp;Humidity;BMP_temperature;BMP_pressure;BME280_temperature;BME280_humidity;BME280_pressure;Samples;Min_cycle;Max_cycle;Signal;HPM_P1;HPM_P2
2022/12/22 03:26:03;;;;;;;;;;;8.50;99.90;;;;;;5075334;28;19908;-63
2022/12/22 03:28:17;;;;;;;;;;;8.60;99.90;;;;;;5075328;28;19915;-65
2022/12/22 03:30:43;;;;;;;;;;;8.60;99.90;;;;;;5075707;28;19908;-64
2022/12/22 03:33:08;;;;;;;;;;;8.60;99.90;;;;;;5075381;28;19909;-64
2022/12/22 03:35:34;;;;;;;;;;;8.60;99.90;;;;;;5075327;28;20397;-63
2022/12/22 03:38:02;;;;;;;;;;;8.60;99.90;;;;;;5075257;28;19908;-63
2022/12/22 03:40:29;;;;;;;;;;;8.70;99.90;;;;;;5075215;28;19909;-63
2022/12/22 03:48:26;;;;;;;;;;;8.60;99.90;;;;;;5074845;28;19912;-64
2022/12/22 03:50:51;;;;;;;;;;;8.70;99.90;;;;;;5075024;28;19938;-63
2022/12/22 03:53:17;;;;;;;;;;;8.60;99.90;;;;;;5075210;28;19908;-63
2022/12/22 03:55:42;;;;;;;;;;;8.60;99.90;;;;;;5057315;28;19916;-63
2022/12/22 03:58:07;;;;;;;;;;;8.60;99.90;;;;;;5056940;28;20289;-64
2022/12/22 04:00:33;;;;;;;;;;;8.60;99.90;;;;;;5074764;28;19944;-64
2022/12/22 04:02:58;;;;;;;;;;;8.60;99.90;;;;;;5074695;28;19913;-64
2022/12/22 04:05:24;;;;;;;;;;;8.70;99.90;;;;;;5074712;28;19962;-64
2022/12/22 04:07:49;;;;;;;;;;;8.60;99.90;;;;;;5073841;28;19955;-64
2022/12/22 04:13:00;;;;;;;;;;;8.70;99.90;;;;;;5074313;28;19957;-64
2022/12/22 04:15:27;;;;;;;;;;;8.70;99.90;;;;;;5074511;28;19908;-64
2022/12/22 04:17:53;;;;;;;;;;;8.70;99.90;;;;;;5074464;28;19908;-64
2022/12/22 04:20:19;;;;;;;;;;;8.70;99.90;;;;;;5074402;28;20001;-65
2022/12/22 04:22:45;;;;;;;;;;;8.70;99.90;;;;;;5074237;28;19928;-64
2022/12/22 04:25:11;;;;;;;;;;;8.70;99.90;;;;;;5074371;28;19909;-64
2022/12/22 04:27:36;;;;;;;;;;;8.70;99.90;;;;;;5074330;28;19909;-64
2022/12/22 04:30:03;;;;;;;;;;;8.70;99.90;;;;;;5074251;28;19908;-64
2022/12/22 04:32:28;;;;;;;;;;;8.70;99.90;;;;;;5074251;28;19912;-63
2022/12/22 04:34:53;;;;;;;;;;;8.70;99.90;;;;;;5074428;28;19975;-63
2022/12/22 04:37:19;;;;;;;;;;;8.70;99.90;;;;;;5056228;28;19931;-64
2022/12/22 04:39:44;;;;;;;;;;;8.80;99.90;;;;;;5074064;28;19909;-64
2022/12/22 04:42:10;;;;;;;;;;;8.80;99.90;;;;;;5073962;28;19920;-64
2022/12/22 04:44:35;;;;;;;;;;;8.80;99.90;;;;;;5073999;28;19934;-64
2022/12/22 04:47:01;;;;;;;;;;;8.80;99.90;;;;;;5074244;28;19913;-64
2022/12/22 04:49:26;;;;;;;;;;;8.80;99.90;;;;;;5074216;28;19915;-64
2022/12/22 04:51:51;;;;;;;;;;;8.80;99.90;;;;;;5056016;28;19987;-64
2022/12/22 04:54:17;;;;;;;;;;;8.80;99.90;;;;;;5074175;28;20357;-64
2022/12/22 04:56:42;;;;;;;;;;;8.80;99.90;;;;;;5074095;28;19984;-64
2022/12/22 04:59:08;;;;;;;;;;;8.80;99.90;;;;;;5073821;28;19912;-64
2022/12/22 05:01:33;;;;;;;;;;;8.80;99.90;;;;;;5073779;28;19995;-64
2022/12/22 05:03:59;;;;;;;;;;;8.80;99.90;;;;;;5073705;28;19912;-64
2022/12/22 05:06:24;;;;;;;;;;;8.80;99.90;;;;;;5074011;28;19958;-64
2022/12/22 05:08:50;;;;;;;;;;;8.80;99.90;;;;;;5073679;28;19917;-64
2022/12/22 05:11:15;;;;;;;;;;;8.80;99.90;;;;;;5073937;28;19909;-64
2022/12/22 05:13:40;;;;;;;;;;;8.80;99.90;;;;;;5073913;28;19920;-64
2022/12/22 05:16:07;;;;;;;;;;;8.90;99.90;;;;;;5073578;28;20370;-64
2022/12/22 05:18:33;;;;;;;;;;;8.90;99.90;;;;;;5073412;28;19909;-64
2022/12/22 05:21:03;;;;;;;;;;;8.90;99.90;;;;;;5073598;28;19908;-64
2022/12/22 05:23:29;;;;;;;;;;;8.90;99.90;;;;;;5073380;28;19920;-64
2022/12/22 05:25:54;;;;;;;;;;;8.90;99.90;;;;;;5073818;28;19930;-64
2022/12/22 05:28:20;;;;;;;;;;;8.80;99.90;;;;;;5073501;28;20391;-65
2022/12/22 05:30:45;;;;;;;;;;;8.90;99.90;;;;;;5073756;28;19974;-64
2022/12/22 05:33:10;;;;;;;;;;;8.90;99.90;;;;;;5073486;28;19995;-64
2022/12/22 05:35:36;;;;;;;;;;;8.90;99.90;;;;;;5073494;28;19916;-64
2022/12/22 05:38:01;;;;;;;;;;;8.80;99.90;;;;;;5073695;28;19908;-64
2022/12/22 05:40:27;;;;;;;;;;;8.80;99.90;;;;;;5073419;28;20372;-64
2022/12/22 05:42:52;;;;;;;;;;;8.80;99.90;;;;;;5073287;28;19912;-64
2022/12/22 05:45:19;;;;;;;;;;;8.80;99.90;;;;;;5073417;28;19947;-64
2022/12/22 05:47:46;;;;;;;;;;;8.80;99.90;;;;;;5073334;28;19909;-64
2022/12/22 05:50:13;;;;;;;;;;;8.80;99.90;;;;;;5073268;28;19944;-64
2022/12/22 05:52:39;;;;;;;;;;;8.90;99.90;;;;;;5073282;28;19915;-64
2022/12/22 05:55:05;;;;;;;;;;;8.90;99.90;;;;;;5073495;28;19909;-64
2022/12/22 05:57:30;;;;;;;;;;;8.90;99.90;;;;;;5055328;28;19969;-64
2022/12/22 05:59:56;;;;;;;;;;;8.90;99.90;;;;;;5073469;28;19961;-64
2022/12/22 06:02:21;;;;;;;;;;;8.90;99.90;;;;;;5073087;28;19916;-64
2022/12/22 06:04:47;;;;;;;;;;;8.90;99.90;;;;;;5073398;28;19908;-64
2022/12/22 06:07:12;;;;;;;;;;;8.90;99.90;;;;;;5073432;28;20278;-64
2022/12/22 06:09:38;;;;;;;;;;;8.90;99.90;;;;;;5073108;28;19908;-64
2022/12/22 06:12:03;;;;;;;;;;;8.90;99.90;;;;;;5073154;28;20366;-64
2022/12/22 06:14:29;;;;;;;;;;;8.90;99.90;;;;;;5073382;28;20368;-64
2022/12/22 06:16:54;;;;;;;;;;;8.80;99.90;;;;;;5073077;28;19948;-64
2022/12/22 06:19:20;;;;;;;;;;;8.80;99.90;;;;;;5073063;28;19912;-64
2022/12/22 06:21:45;;;;;;;;;;;8.70;99.90;;;;;;5073105;28;19917;-64
2022/12/22 06:24:10;;;;;;;;;;;8.80;99.90;;;;;;5072908;28;19916;-64
2022/12/22 06:26:36;;;;;;;;;;;8.80;99.90;;;;;;5072968;28;19940;-64
2022/12/22 06:29:01;;;;;;;;;;;8.80;99.90;;;;;;5073209;28;19919;-64
2022/12/22 06:31:37;;;;;;;;;;;8.70;99.90;;;;;;5076412;28;20381;-64
2022/12/22 06:34:02;;;;;;;;;;;8.70;99.90;;;;;;5076783;28;19916;-64
2022/12/22 06:36:28;;;;;;;;;;;8.70;99.90;;;;;;5076728;28;20324;-64
2022/12/22 06:38:53;;;;;;;;;;;8.70;99.90;;;;;;5076412;28;19962;-64
2022/12/22 06:43:07;;;;;;;;;;;8.70;99.90;;;;;;5076672;28;19908;-64
2022/12/22 06:44:04;;;;;;;;;;;8.70;99.90;;;;;;5076048;28;20343;-64
2022/12/22 06:46:32;;;;;;;;;;;8.70;99.90;;;;;;5076327;28;19909;-64
2022/12/22 06:48:58;;;;;;;;;;;8.70;99.90;;;;;;5076251;28;19991;-64
2022/12/22 06:51:23;;;;;;;;;;;8.70;99.90;;;;;;5076187;28;19943;-64
2022/12/22 06:53:49;;;;;;;;;;;8.70;99.90;;;;;;5076203;28;19908;-64
2022/12/22 06:56:14;;;;;;;;;;;8.70;99.90;;;;;;5075994;28;19999;-64
2022/12/22 06:58:39;;;;;;;;;;;8.70;99.90;;;;;;5076039;28;19908;-64
2022/12/22 07:01:05;;;;;;;;;;;8.70;99.90;;;;;;5075883;28;19934;-63
2022/12/22 07:03:30;;;;;;;;;;;8.70;99.90;;;;;;5076093;28;19913;-64
2022/12/22 07:05:56;;;;;;;;;;;8.70;99.90;;;;;;5075920;28;19934;-64
2022/12/22 07:08:21;;;;;;;;;;;8.70;99.90;;;;;;5075793;28;20289;-65
2022/12/22 07:11:02;;;;;;;;;;;8.70;99.90;;;;;;5076027;28;19916;-63
2022/12/22 07:13:30;;;;;;;;;;;8.70;99.90;;;;;;5075744;28;19971;-64
2022/12/22 07:15:56;;;;;;;;;;;8.70;99.90;;;;;;5069797;28;20007;-64
2022/12/22 07:18:21;;;;;;;;;;;8.70;99.90;;;;;;5069402;28;20413;-64
2022/12/22 07:20:47;;;;;;;;;;;8.70;99.90;;;;;;5060019;28;19935;-64
2022/12/22 07:23:12;;;;;;;;;;;8.70;99.90;;;;;;5071774;28;20297;-65
2022/12/22 07:25:38;;;;;;;;;;;8.60;99.90;;;;;;5074275;28;19995;-65
2022/12/22 07:28:04;;;;;;;;;;;8.60;99.90;;;;;;5075382;28;20361;-64
2022/12/22 07:30:30;;;;;;;;;;;8.60;99.90;;;;;;5055901;28;19913;-64
2022/12/22 07:32:55;;;;;;;;;;;8.60;99.90;;;;;;5037254;28;20043;-64
2022/12/22 07:35:21;;;;;;;;;;;8.60;99.90;;;;;;5062196;28;19916;-64
2022/12/22 07:37:47;;;;;;;;;;;8.60;99.90;;;;;;5055401;28;19912;-64
2022/12/22 07:40:12;;;;;;;;;;;8.60;99.90;;;;;;5055256;28;19908;-64
2022/12/22 07:42:44;;;;;;;;;;;8.70;99.90;;;;;;5055072;28;19916;-64
2022/12/22 07:45:11;;;;;;;;;;;8.70;99.90;;;;;;5058027;28;19936;-64
2022/12/22 07:47:36;;;;;;;;;;;8.70;99.90;;;;;;5074068;28;19912;-64
2022/12/22 07:50:34;;;;;;;;;;;8.70;99.90;;;;;;5074957;28;20263;-64
2022/12/22 07:52:48;;;;;;;;;;;8.60;99.90;;;;;;5073359;28;19913;-64
2022/12/22 07:55:13;;;;;;;;;;;8.70;99.90;;;;;;5074447;28;20492;-64
2022/12/22 07:57:39;;;;;;;;;;;8.70;99.90;;;;;;5074740;28;19908;-69
2022/12/22 08:00:05;;;;;;;;;;;8.70;99.90;;;;;;5074125;28;19932;-64
2022/12/22 08:02:31;;;;;;;;;;;8.70;99.90;;;;;;5072556;28;20374;-64
2022/12/22 08:04:56;;;;;;;;;;;8.70;99.90;;;;;;5074573;28;19908;-64
2022/12/22 08:07:21;;;;;;;;;;;8.70;99.90;;;;;;5070949;28;19921;-65
2022/12/22 08:09:47;;;;;;;;;;;8.70;99.90;;;;;;5054572;28;19912;-64
2022/12/22 08:12:12;;;;;;;;;;;8.70;99.90;;;;;;5054367;28;19909;-64
2022/12/22 08:14:38;;;;;;;;;;;8.70;99.90;;;;;;5054363;28;20474;-64
2022/12/22 08:17:03;;;;;;;;;;;8.70;99.90;;;;;;5054022;28;20294;-65
2022/12/22 08:19:29;;;;;;;;;;;8.80;99.90;;;;;;5055912;28;19975;-64
2022/12/22 08:21:54;;;;;;;;;;;8.80;99.90;;;;;;5073880;28;19921;-64
2022/12/22 08:24:20;;;;;;;;;;;8.90;99.90;;;;;;5072830;28;19912;-64
2022/12/22 08:26:48;;;;;;;;;;;9.00;99.90;;;;;;5074225;28;19908;-64
2022/12/22 08:29:16;;;;;;;;;;;9.00;99.90;;;;;;5074148;28;19908;-64
2022/12/22 08:31:44;;;;;;;;;;;9.00;99.90;;;;;;5073853;28;19956;-64
2022/12/22 08:34:13;;;;;;;;;;;9.00;99.90;;;;;;5054941;28;19909;-66
2022/12/22 08:36:40;;;;;;;;;;;9.00;99.90;;;;;;5073780;28;20010;-64
2022/12/22 08:39:06;;;;;;;;;;;9.10;99.90;;;;;;5074060;28;19909;-64
2022/12/22 08:42:03;;;;;;;;;;;9.10;99.90;;;;;;5074053;28;20350;-64
2022/12/22 08:44:19;;;;;;;;;;;9.20;99.90;;;;;;5072177;28;19948;-64
2022/12/22 08:46:45;;;;;;;;;;;9.20;99.90;;;;;;5073737;28;19919;-64
2022/12/22 08:49:10;;;;;;;;;;;9.30;99.90;;;;;;5073930;28;19908;-64
2022/12/22 08:51:36;;;;;;;;;;;9.30;99.90;;;;;;5073776;28;20313;-64
2022/12/22 08:54:01;;;;;;;;;;;9.30;99.90;;;;;;5071984;28;19955;-65
2022/12/22 08:56:27;;;;;;;;;;;9.30;99.90;;;;;;5077803;28;19912;-64
2022/12/22 08:58:52;;;;;;;;;;;9.20;99.90;;;;;;5061473;28;20369;-64
2022/12/22 09:01:19;;;;;;;;;;;9.20;99.90;;;;;;5072875;28;20277;-64
2022/12/22 09:03:52;;;;;;;;;;;9.20;99.90;;;;;;5073410;28;19913;-64
2022/12/22 09:06:18;;;;;;;;;;;9.30;99.90;;;;;;5073324;28;19909;-64
2022/12/22 09:08:44;;;;;;;;;;;9.30;99.90;;;;;;5073242;28;19912;-64
2022/12/22 09:11:09;;;;;;;;;;;9.30;99.90;;;;;;5069185;28;19961;-64
2022/12/22 09:13:35;;;;;;;;;;;9.30;99.90;;;;;;5073011;28;20476;-64
2022/12/22 09:16:04;;;;;;;;;;;9.30;99.90;;;;;;5073367;28;20017;-64
2022/12/22 09:18:30;;;;;;;;;;;9.30;99.90;;;;;;5073117;28;19915;-64
2022/12/22 09:20:55;;;;;;;;;;;9.40;99.90;;;;;;5073096;28;20328;-64
2022/12/22 09:23:21;;;;;;;;;;;9.40;99.90;;;;;;5073138;28;19924;-64
2022/12/22 09:25:46;;;;;;;;;;;9.40;99.90;;;;;;5070781;28;19966;-64
2022/12/22 09:28:12;;;;;;;;;;;9.40;99.90;;;;;;5073117;28;19916;-64
2022/12/22 09:30:37;;;;;;;;;;;9.40;99.90;;;;;;5072286;28;20294;-64
2022/12/22 09:33:03;;;;;;;;;;;9.50;99.90;;;;;;5072215;28;19958;-64
2022/12/22 09:35:28;;;;;;;;;;;9.50;99.90;;;;;;5054349;28;20011;-64
2022/12/22 09:37:53;;;;;;;;;;;9.50;99.90;;;;;;5072395;28;19966;-66
2022/12/22 09:40:21;;;;;;;;;;;9.50;99.90;;;;;;5073083;28;19908;-64
2022/12/22 09:42:46;;;;;;;;;;;9.60;99.90;;;;;;5073358;28;19912;-64
2022/12/22 09:45:18;;;;;;;;;;;9.60;99.90;;;;;;5071288;28;20423;-65
2022/12/22 09:47:49;;;;;;;;;;;9.60;99.90;;;;;;5072922;28;20357;-64
2022/12/22 09:50:15;;;;;;;;;;;9.60;99.90;;;;;;5071370;28;19913;-64
2022/12/22 09:52:45;;;;;;;;;;;9.70;99.90;;;;;;5068462;28;19928;-64
2022/12/22 09:55:12;;;;;;;;;;;9.70;99.90;;;;;;5067876;28;19919;-63
2022/12/22 09:57:38;;;;;;;;;;;9.70;99.90;;;;;;5069236;28;19924;-64
2022/12/22 10:00:14;;;;;;;;;;;9.80;99.90;;;;;;5071830;28;20365;-65
2022/12/22 10:02:48;;;;;;;;;;;9.80;99.90;;;;;;5064706;28;20375;-63
2022/12/22 10:05:37;;;;;;;;;;;9.80;99.90;;;;;;5070740;28;19919;-63
2022/12/22 10:08:19;;;;;;;;;;;9.80;99.90;;;;;;5056566;28;19920;-65
2022/12/22 10:10:45;;;;;;;;;;;9.80;99.90;;;;;;5076406;28;20004;-63
2022/12/22 10:13:15;;;;;;;;;;;9.80;99.90;;;;;;5075322;28;20299;-63
2022/12/22 10:15:40;;;;;;;;;;;9.80;99.90;;;;;;5076548;28;19916;-64
2022/12/22 10:18:23;;;;;;;;;;;9.80;99.90;;;;;;5076561;28;19909;-64
2022/12/22 10:21:08;;;;;;;;;;;9.80;99.90;;;;;;5076826;28;19978;-63
2022/12/22 10:23:37;;;;;;;;;;;9.80;99.90;;;;;;5063182;28;19982;-63
2022/12/22 10:26:09;;;;;;;;;;;9.80;99.90;;;;;;5066574;28;19936;-64
2022/12/22 10:28:36;;;;;;;;;;;9.70;99.90;;;;;;5056456;28;19992;-63
2022/12/22 10:31:18;;;;;;;;;;;9.70;99.90;;;;;;5056250;28;19943;-64
2022/12/22 10:33:45;;;;;;;;;;;9.70;99.90;;;;;;5058096;28;20358;-64
2022/12/22 10:36:11;;;;;;;;;;;9.70;99.90;;;;;;5072017;28;19913;-64
2022/12/22 10:38:38;;;;;;;;;;;9.60;99.90;;;;;;5053303;28;19959;-63
2022/12/22 10:43:50;;;;;;;;;;;9.60;99.90;;;;;;5075573;27;19935;-62
2022/12/22 10:46:15;;;;;;;;;;;9.60;99.90;;;;;;5082095;28;20305;-62
2022/12/22 10:48:41;;;;;;;;;;;9.60;99.90;;;;;;5088576;28;19984;-63
2022/12/22 10:51:08;;;;;;;;;;;9.60;99.90;;;;;;5090585;28;19922;-62
2022/12/22 10:53:51;;;;;;;;;;;9.60;99.90;;;;;;5091103;28;20277;-63
2022/12/22 10:56:19;;;;;;;;;;;9.60;99.90;;;;;;5084194;28;20011;-62
2022/12/22 10:58:46;;;;;;;;;;;9.60;99.90;;;;;;5090627;28;19958;-62
2022/12/22 11:01:11;;;;;;;;;;;9.60;99.90;;;;;;5085061;28;19908;-62
2022/12/22 11:03:37;;;;;;;;;;;9.60;99.90;;;;;;5095025;28;19916;-63
2022/12/22 11:06:10;;;;;;;;;;;9.60;99.90;;;;;;5090591;28;19916;-63
2022/12/22 11:08:35;;;;;;;;;;;9.60;99.90;;;;;;5089546;28;19937;-62
2022/12/22 11:11:04;;;;;;;;;;;9.60;99.90;;;;;;5090547;28;19912;-62
2022/12/22 11:13:50;;;;;;;;;;;9.60;99.90;;;;;;5077445;28;19912;-62
2022/12/22 11:16:40;;;;;;;;;;;9.70;99.90;;;;;;5081657;28;19923;-62
2022/12/22 11:19:25;;;;;;;;;;;9.70;99.90;;;;;;5090595;28;19966;-63
2022/12/22 11:22:11;;;;;;;;;;;9.60;99.90;;;;;;5089217;28;19916;-63
2022/12/22 11:24:41;;;;;;;;;;;9.60;99.90;;;;;;5088994;28;20301;-63
2022/12/22 11:27:26;;;;;;;;;;;9.60;99.90;;;;;;5090232;28;20297;-63
2022/12/22 11:30:10;;;;;;;;;;;9.60;99.90;;;;;;5088441;28;19962;-63
2022/12/22 11:32:45;;;;;;;;;;;9.60;99.90;;;;;;5090075;28;19912;-63
2022/12/22 11:35:30;;;;;;;;;;;9.60;99.90;;;;;;5090049;28;19914;-63
2022/12/22 11:38:00;;;;;;;;;;;9.60;99.90;;;;;;5089840;28;19908;-64
2022/12/22 11:40:45;;;;;;;;;;;9.60;99.90;;;;;;5087300;28;19908;-64
2022/12/22 11:43:20;;;;;;;;;;;9.60;99.90;;;;;;5106120;28;20015;-63
2022/12/22 11:45:50;;;;;;;;;;;9.60;99.90;;;;;;5118683;28;20027;-63
2022/12/22 11:48:35;;;;;;;;;;;9.50;99.90;;;;;;5116413;28;19924;-63
2022/12/22 11:51:07;;;;;;;;;;;9.50;99.90;;;;;;5114320;28;19943;-63
2022/12/22 11:56:18;;;;;;;;;;;9.80;99.90;;;;;;5070256;28;19917;-63
2022/12/22 11:58:58;;;;;;;;;;;10.20;99.90;;;;;;5070671;28;19920;-65
2022/12/22 12:01:43;;;;;;;;;;;10.40;99.90;;;;;;5067934;28;19917;-64
2022/12/22 12:04:17;;;;;;;;;;;10.30;99.90;;;;;;5068305;28;19913;-64
2022/12/22 12:07:02;;;;;;;;;;;10.30;99.90;;;;;;5070247;28;19962;-65
2022/12/22 12:09:48;;;;;;;;;;;10.40;99.90;;;;;;5053198;28;19916;-64
2022/12/22 12:15:18;;;;;;;;;;;10.40;99.90;;;;;;5089403;28;19913;-62
2022/12/22 12:18:03;;;;;;;;;;;10.30;99.90;;;;;;5069353;28;19971;-63
2022/12/22 12:20:48;;;;;;;;;;;10.20;99.90;;;;;;5068578;28;19948;-62
2022/12/22 12:23:34;;;;;;;;;;;10.10;99.90;;;;;;5055316;28;19912;-63
2022/12/22 12:26:13;;;;;;;;;;;10.20;99.90;;;;;;5070389;28;20286;-63
2022/12/22 12:28:53;;;;;;;;;;;10.10;99.90;;;;;;5070500;28;19909;-63
2022/12/22 12:31:20;;;;;;;;;;;10.00;99.90;;;;;;5069317;28;19913;-63
2022/12/22 12:33:55;;;;;;;;;;;9.80;99.90;;;;;;5051210;28;19924;-63
2022/12/22 12:36:25;;;;;;;;;;;9.70;99.90;;;;;;5069779;28;19913;-62
2022/12/22 12:39:01;;;;;;;;;;;9.40;99.90;;;;;;5069435;28;19952;-63
2022/12/22 12:41:47;;;;;;;;;;;9.40;99.90;;;;;;5070246;28;19915;-63
2022/12/22 12:44:14;;;;;;;;;;;9.40;99.90;;;;;;5069167;28;19916;-63
2022/12/22 12:46:58;;;;;;;;;;;9.40;99.90;;;;;;5070216;28;19951;-63
2022/12/22 12:49:43;;;;;;;;;;;9.50;99.90;;;;;;5069203;28;19916;-63
2022/12/22 12:52:10;;;;;;;;;;;9.60;99.90;;;;;;5069425;28;19909;-64
2022/12/22 12:54:37;;;;;;;;;;;9.50;99.90;;;;;;5070155;28;19913;-64
2022/12/22 12:57:08;;;;;;;;;;;9.60;99.90;;;;;;5069866;28;19955;-63
2022/12/22 12:59:43;;;;;;;;;;;9.60;99.90;;;;;;5051041;28;19917;-64
2022/12/22 13:02:29;;;;;;;;;;;9.70;99.90;;;;;;5069311;28;19909;-63
2022/12/22 13:05:15;;;;;;;;;;;9.80;99.90;;;;;;5072019;28;19939;-64
2022/12/22 13:08:00;;;;;;;;;;;9.90;99.90;;;;;;5085822;28;19920;-64
2022/12/22 13:10:26;;;;;;;;;;;10.10;99.90;;;;;;5084636;28;19962;-63
2022/12/22 13:12:52;;;;;;;;;;;10.10;99.90;;;;;;5071294;28;20373;-63
2022/12/22 13:15:38;;;;;;;;;;;10.20;99.90;;;;;;5074630;28;19908;-63
2022/12/22 13:18:10;;;;;;;;;;;10.20;99.90;;;;;;5076339;28;19908;-63
2022/12/22 13:20:36;;;;;;;;;;;10.20;99.90;;;;;;5067200;28;19919;-63
2022/12/22 13:23:03;;;;;;;;;;;10.20;99.90;;;;;;5068075;28;19919;-63
2022/12/22 13:25:38;;;;;;;;;;;10.20;99.90;;;;;;5064760;28;19962;-63
2022/12/22 13:28:04;;;;;;;;;;;10.20;99.90;;;;;;5064462;28;19913;-62
2022/12/22 13:30:30;;;;;;;;;;;10.10;99.90;;;;;;5055907;28;19916;-63
2022/12/22 13:32:56;;;;;;;;;;;10.10;99.90;;;;;;5072697;28;19915;-63
2022/12/22 13:35:26;;;;;;;;;;;10.10;99.90;;;;;;5055322;28;20367;-63
2022/12/22 13:37:52;;;;;;;;;;;10.10;99.90;;;;;;5055157;28;20385;-63
2022/12/22 13:40:20;;;;;;;;;;;10.00;99.90;;;;;;5044843;28;19962;-63
2022/12/22 13:42:55;;;;;;;;;;;10.00;99.90;;;;;;5071663;28;20342;-63
2022/12/22 13:45:26;;;;;;;;;;;10.10;99.90;;;;;;5058737;28;19908;-63
2022/12/22 13:47:52;;;;;;;;;;;10.10;99.90;;;;;;5055798;28;19916;-63
2022/12/22 13:50:23;;;;;;;;;;;10.00;99.90;;;;;;5054838;28;19913;-62
2022/12/22 13:52:50;;;;;;;;;;;9.90;99.90;;;;;;5055021;28;19952;-63
2022/12/22 13:55:17;;;;;;;;;;;9.90;99.90;;;;;;5059958;28;19917;-63
2022/12/22 13:57:43;;;;;;;;;;;9.90;99.90;;;;;;5075680;28;19987;-63
2022/12/22 14:00:24;;;;;;;;;;;9.80;99.90;;;;;;5060165;28;19935;-63
2022/12/22 14:02:50;;;;;;;;;;;9.80;99.90;;;;;;5075297;28;19908;-62
2022/12/22 14:05:16;;;;;;;;;;;9.70;99.90;;;;;;5062517;28;20385;-63
2022/12/22 14:07:58;;;;;;;;;;;9.60;99.90;;;;;;5055360;28;19908;-63
2022/12/22 14:10:26;;;;;;;;;;;9.50;99.90;;;;;;5054601;28;20290;-63
2022/12/22 14:12:51;;;;;;;;;;;9.40;99.90;;;;;;5054884;28;20374;-63
2022/12/22 14:15:17;;;;;;;;;;;9.40;99.90;;;;;;5053349;28;19951;-63
2022/12/22 14:17:43;;;;;;;;;;;9.40;99.90;;;;;;5060853;28;19916;-63
2022/12/22 14:20:28;;;;;;;;;;;9.50;99.90;;;;;;5059418;28;20480;-62
2022/12/22 14:22:57;;;;;;;;;;;9.50;99.90;;;;;;5051216;28;19924;-64
2022/12/22 14:25:27;;;;;;;;;;;9.50;99.90;;;;;;5053599;28;19913;-64
2022/12/22 14:27:54;;;;;;;;;;;9.40;99.90;;;;;;5054204;28;19920;-63
2022/12/22 14:30:23;;;;;;;;;;;9.40;99.90;;;;;;5054921;28;19916;-64
2022/12/22 14:32:50;;;;;;;;;;;9.40;99.90;;;;;;5052827;28;19920;-64
2022/12/22 14:35:21;;;;;;;;;;;9.40;99.90;;;;;;5054797;28;19917;-64
2022/12/22 14:37:48;;;;;;;;;;;9.40;99.90;;;;;;5050442;28;19958;-64
2022/12/22 14:40:28;;;;;;;;;;;9.50;99.90;;;;;;5045955;28;20316;-63
2022/12/22 14:42:54;;;;;;;;;;;9.50;99.90;;;;;;5057770;28;19912;-63
2022/12/22 14:45:19;;;;;;;;;;;9.50;99.90;;;;;;5044589;28;19931;-63
2022/12/22 14:47:45;;;;;;;;;;;9.50;99.90;;;;;;5054045;28;19920;-62
2022/12/22 14:50:26;;;;;;;;;;;9.50;99.90;;;;;;5054795;28;19909;-62
2022/12/22 14:52:56;;;;;;;;;;;9.40;99.90;;;;;;5054704;28;19912;-62
2022/12/22 14:55:25;;;;;;;;;;;9.40;99.90;;;;;;5054404;28;19920;-63
2022/12/22 14:57:53;;;;;;;;;;;9.30;99.90;;;;;;5054437;28;19916;-62
2022/12/22 15:03:01;;;;;;;;;;;9.40;99.90;;;;;;5085814;27;19916;-63
2022/12/22 15:05:36;;;;;;;;;;;9.30;99.90;;;;;;5073615;28;19974;-63
2022/12/22 15:08:03;;;;;;;;;;;9.30;99.90;;;;;;5069986;28;19909;-65
2022/12/22 15:10:33;;;;;;;;;;;9.20;99.90;;;;;;5087431;28;19923;-63
2022/12/22 15:13:02;;;;;;;;;;;9.20;99.90;;;;;;5090482;28;19970;-64
2022/12/22 15:15:27;;;;;;;;;;;9.10;99.90;;;;;;5090324;28;19909;-63
2022/12/22 15:17:53;;;;;;;;;;;9.00;99.90;;;;;;5091040;28;19915;-63
2022/12/22 15:20:21;;;;;;;;;;;8.90;99.90;;;;;;5091003;28;19909;-63
2022/12/22 15:22:47;;;;;;;;;;;8.90;99.90;;;;;;5090951;28;19916;-63
2022/12/22 15:25:13;;;;;;;;;;;8.80;99.90;;;;;;5090763;28;19934;-63
2022/12/22 15:27:39;;;;;;;;;;;8.80;99.90;;;;;;5090971;28;20015;-65
2022/12/22 15:30:05;;;;;;;;;;;8.70;99.90;;;;;;5090658;28;19948;-63
2022/12/22 15:32:30;;;;;;;;;;;8.60;99.90;;;;;;5090735;28;19913;-63
2022/12/22 15:34:56;;;;;;;;;;;8.60;99.90;;;;;;5106208;28;20034;-63
2022/12/22 15:37:21;;;;;;;;;;;8.60;99.90;;;;;;5090456;28;19957;-63
2022/12/22 15:39:47;;;;;;;;;;;8.60;99.90;;;;;;5090494;28;19912;-63
2022/12/22 15:42:12;;;;;;;;;;;8.60;99.90;;;;;;5090283;28;19938;-63
2022/12/22 15:44:38;;;;;;;;;;;8.50;99.90;;;;;;5090687;28;19909;-63
2022/12/22 15:47:03;;;;;;;;;;;8.50;99.90;;;;;;5090596;28;19909;-63
2022/12/22 15:49:29;;;;;;;;;;;8.40;99.90;;;;;;5089124;28;19908;-63
2022/12/22 15:51:57;;;;;;;;;;;8.40;99.90;;;;;;5090279;28;20365;-63
2022/12/22 15:54:24;;;;;;;;;;;8.50;99.90;;;;;;5090199;28;19916;-63
2022/12/22 15:56:51;;;;;;;;;;;8.40;99.90;;;;;;5090128;28;20094;-63
2022/12/22 15:59:18;;;;;;;;;;;8.50;99.90;;;;;;5090044;28;19908;-63
2022/12/22 16:01:44;;;;;;;;;;;8.40;99.90;;;;;;5099857;28;20011;-63
2022/12/22 16:04:09;;;;;;;;;;;8.40;99.90;;;;;;5110499;28;19955;-63
2022/12/22 16:06:35;;;;;;;;;;;8.40;99.90;;;;;;5110218;28;19954;-63
2022/12/22 16:09:00;;;;;;;;;;;8.40;99.90;;;;;;5110378;28;19912;-63
2022/12/22 16:11:25;;;;;;;;;;;8.40;99.90;;;;;;5110333;28;20293;-63
2022/12/22 16:13:51;;;;;;;;;;;8.30;99.90;;;;;;5099438;28;19908;-63
2022/12/22 16:16:17;;;;;;;;;;;8.20;99.90;;;;;;5096487;28;20362;-63
2022/12/22 16:18:42;;;;;;;;;;;8.20;99.90;;;;;;5096431;28;19962;-63
2022/12/22 16:21:13;;;;;;;;;;;8.10;99.90;;;;;;5096389;28;19912;-63
2022/12/22 16:23:40;;;;;;;;;;;8.20;99.90;;;;;;5096414;28;19930;-63
2022/12/22 16:26:05;;;;;;;;;;;8.20;99.90;;;;;;5096536;28;19930;-63
2022/12/22 16:28:31;;;;;;;;;;;8.30;99.90;;;;;;5096377;28;19912;-63
2022/12/22 16:30:58;;;;;;;;;;;8.30;99.90;;;;;;5096506;28;20108;-63
2022/12/22 16:33:23;;;;;;;;;;;8.30;99.90;;;;;;5096072;28;19908;-63
2022/12/22 16:35:48;;;;;;;;;;;8.20;99.90;;;;;;5096224;28;19972;-63
2022/12/22 16:38:14;;;;;;;;;;;8.20;99.90;;;;;;5096121;28;19908;-63
2022/12/22 16:40:42;;;;;;;;;;;8.10;99.90;;;;;;5096248;28;19937;-63
2022/12/22 16:43:16;;;;;;;;;;;8.00;99.90;;;;;;5095999;28;20289;-63
2022/12/22 16:45:42;;;;;;;;;;;8.00;99.90;;;;;;5096256;28;20366;-63
2022/12/22 16:48:11;;;;;;;;;;;8.00;99.90;;;;;;5096033;28;19908;-63
2022/12/22 16:50:37;;;;;;;;;;;8.00;99.90;;;;;;5095850;28;19909;-63
2022/12/22 16:53:03;;;;;;;;;;;8.00;99.90;;;;;;5095858;28;20400;-63
2022/12/22 16:55:29;;;;;;;;;;;8.00;99.90;;;;;;5096062;28;20388;-63
2022/12/22 16:57:55;;;;;;;;;;;7.90;99.90;;;;;;5095745;28;19912;-63
2022/12/22 17:00:22;;;;;;;;;;;7.90;99.90;;;;;;5095698;28;20316;-63
2022/12/22 17:02:50;;;;;;;;;;;8.00;99.90;;;;;;5095384;28;19924;-63
2022/12/22 17:05:35;;;;;;;;;;;7.90;99.90;;;;;;5095884;28;19914;-63
2022/12/22 17:08:01;;;;;;;;;;;8.00;99.90;;;;;;5095454;28;19912;-63
2022/12/22 17:10:27;;;;;;;;;;;8.00;99.90;;;;;;5095552;28;19916;-63
2022/12/22 17:12:54;;;;;;;;;;;7.90;99.90;;;;;;5095390;28;20270;-63
2022/12/22 17:15:20;;;;;;;;;;;7.90;99.90;;;;;;5095660;28;19999;-63
2022/12/22 17:17:47;;;;;;;;;;;7.90;99.90;;;;;;5095517;28;19956;-63
2022/12/22 17:20:14;;;;;;;;;;;7.80;99.90;;;;;;5095269;28;20296;-63
2022/12/22 17:22:39;;;;;;;;;;;7.80;99.90;;;;;;5095382;28;19935;-62
2022/12/22 17:25:07;;;;;;;;;;;7.90;99.90;;;;;;5094070;28;20369;-63
2022/12/22 17:27:33;;;;;;;;;;;7.90;99.90;;;;;;5095405;28;19908;-63
2022/12/22 17:30:00;;;;;;;;;;;8.00;99.90;;;;;;5095171;28;19914;-62
2022/12/22 17:32:26;;;;;;;;;;;8.00;99.90;;;;;;5095025;28;19915;-62
2022/12/22 17:34:51;;;;;;;;;;;8.00;99.90;;;;;;5095077;28;19910;-63
2022/12/22 17:37:18;;;;;;;;;;;8.00;99.90;;;;;;5095026;28;19912;-63
2022/12/22 17:39:44;;;;;;;;;;;8.00;99.90;;;;;;5095021;28;20385;-62
2022/12/22 17:42:18;;;;;;;;;;;8.00;99.90;;;;;;5094874;28;20327;-63
2022/12/22 17:44:44;;;;;;;;;;;8.00;99.90;;;;;;5095121;28;20426;-63
2022/12/22 17:47:11;;;;;;;;;;;8.00;99.90;;;;;;5094797;28;19912;-62
2022/12/22 17:49:36;;;;;;;;;;;8.00;99.90;;;;;;5094596;28;19923;-63
2022/12/22 17:52:02;;;;;;;;;;;8.10;99.90;;;;;;5094558;28;19920;-63
2022/12/22 17:54:28;;;;;;;;;;;8.10;99.90;;;;;;5094896;28;19915;-62
2022/12/22 17:56:56;;;;;;;;;;;8.10;99.90;;;;;;5094560;28;19909;-62
2022/12/22 17:59:21;;;;;;;;;;;8.10;99.90;;;;;;5094592;28;19912;-62
2022/12/22 18:01:47;;;;;;;;;;;8.10;99.90;;;;;;5094242;28;19931;-63
2022/12/22 18:04:12;;;;;;;;;;;8.10;99.90;;;;;;5094481;28;19908;-62
2022/12/22 18:06:38;;;;;;;;;;;8.10;99.90;;;;;;5094719;28;19908;-63
2022/12/22 18:09:05;;;;;;;;;;;8.10;99.90;;;;;;5094670;28;19911;-63
2022/12/22 18:11:31;;;;;;;;;;;8.10;99.90;;;;;;5076403;28;19978;-63
2022/12/22 18:13:57;;;;;;;;;;;8.00;99.90;;;;;;5094570;28;19914;-63
2022/12/22 18:16:23;;;;;;;;;;;8.00;99.90;;;;;;5094325;28;20400;-63
2022/12/22 18:18:48;;;;;;;;;;;8.00;99.90;;;;;;5094503;28;19908;-64
2022/12/22 18:21:16;;;;;;;;;;;8.00;99.90;;;;;;5094458;28;19912;-63